Thunder radar blitzortung!


Rain radar rain snow radar


Visit our other weather sites:

Template documentation
and downloads

And another site



No particular awareness of the weather is required.    There are no Weather-warnings

Nearby METAR Reports

  
EBBR - Brussels International Airport, Belgium
Distance from station: W 14km
Updated: 17-12-2017 22:20
Light rain, Mostly Cloudy
Light rain, Mostly Cloudy  
 Wind from SSW
Wind: SSW 24 km/h
Temperature:  3°C
Wind Chill:  -2°C
Dew Point:  1°C
Humidity:  87%
Barometer:  1020 hPa
Summary:  Light Rain
Clouds:  Mostly Cloudy
Visibility:  7 km
Cloud details:  Partly Cloudy 213 m
Mostly Cloudy 305 m
Mostly Cloudy 701 m
2017/12/17 21:20 EBBR 172120Z 20013KT 7000 -RA SCT007 BKN010 BKN023 03/01 Q1020 TEMPO 4000 RADZ BKN007
EBBE - Beauvechain (Bevekom), Belgium
Distance from station: SSE 17km
Updated: 17-12-2017 22:25
Light drizzle, Mostly Cloudy
Light drizzle, Mostly Cloudy  
 Wind from SSW
Wind: SSW 30 km/h
Temperature:  2°C
Wind Chill:  -3°C
Dew Point:  1°C
Humidity:  93%
Barometer:  1021 hPa
Summary:  Light Drizzle
Clouds:  Mostly Cloudy
Visibility:  6 km
Cloud details:  Partly Cloudy 183 m
Mostly Cloudy 274 m
Mostly Cloudy 1036 m
2017/12/17 21:25 EBBE 172125Z AUTO 20016KT 6000 -DZ SCT006/// BKN009/// BKN034/// 02/01 Q1021 YLO
EBDT - Schaffen, Belgium
Distance from station: ENE 29km
Updated: 17-12-2017 22:25
Light rain, Mostly Cloudy
Light rain, Mostly Cloudy  
 Wind from S
Wind: S 22 km/h
Temperature:  2°C
Wind Chill:  -3°C
Dew Point:  1°C
Humidity:  93%
Barometer:  1021 hPa
Summary:  Light Rain
Clouds:  Mostly Cloudy
Visibility:  3 km
Cloud details:  Few Clouds 183 m
Mostly Cloudy 274 m
Mostly Cloudy 1067 m
2017/12/17 21:25 EBDT 172125Z AUTO 19012KT 2800 -RA FEW006/// BKN009/// BKN035/// 02/01 Q1021 YLO
EBAW - Antwerp/Deurne, Belgium
Distance from station: NNW 38km
Updated: 17-12-2017 22:20
Light rain drizzle, Mostly Cloudy
Light rain drizzle, Mostly Cloudy  
 Wind from S
Wind: S 22 km/h
Temperature:  3°C
Wind Chill:  -2°C
Dew Point:  2°C
Humidity:  93%
Barometer:  1019 hPa
Summary:  Light Rain Drizzle
Clouds:  Mostly Cloudy
Visibility:  5 km
Cloud details:  Partly Cloudy 244 m
Mostly Cloudy 305 m
2017/12/17 21:20 EBAW 172120Z 19012KT 5000 -RADZ SCT008 BKN010 03/02 Q1019 TEMPO 3500 RADZ BKN007
EBCI - Charleroi/Gosselies, Belgium
Distance from station: SSW 51km
Updated: 17-12-2017 22:20
Light rain drizzle, Mostly Cloudy
Light rain drizzle, Mostly Cloudy  
 Wind from SSW
Wind: SSW 26 km/h
Temperature:  2°C
Wind Chill:  -3°C
Dew Point:  1°C
Humidity:  93%
Barometer:  1022 hPa
Summary:  Light Rain Drizzle
Clouds:  Mostly Cloudy
Visibility:  4 km
Cloud details:  Mostly Cloudy 183 m
2017/12/17 21:20 EBCI 172120Z 20014KT 3500 -RADZ BKN006 02/01 Q1022 TEMPO 2000 -RASN
EBLG - Bierset/Liege, Belgium
Distance from station: ESE 60km
Updated: 17-12-2017 22:20
Mostly Cloudy
Mostly Cloudy  
 Wind from SSW
Wind: SSW 28 km/h
Temperature:  1°C
Wind Chill:  -5°C
Dew Point:  0°C
Humidity:  93%
Barometer:  1022 hPa
Clouds:  Mostly Cloudy
Visibility:  10 km
Cloud details:  Mostly Cloudy 914 m
2017/12/17 21:20 EBLG 172120Z 20015KT 9999 BKN030 01/M00 Q1022 NOSIG

Script developed by  Saratoga-weather.org Adapted for the template by  Weerstation Leuven

You find our weather info also at:


European Weather Network

AWEKAS

Weather Underground

Equipment we use:


Weather-station
Davis VP2+

Weather-program
Meteobridge

Weather-server
Asus WL -330N3G

Provider
Wordpress

Davis VP2+

Meteobridge

Asus WL -330N3G

Wordpress